Flugplatz Nabern/Teck (EDTN)

Hier findest Du alle Informationen zum Flugplatz Nabern/Teck (EDTN).

Informationen für Piloten zum Flugplatz Nabern/Teck

Hier findest Du alle relevanten Informationen, die Du als Pilot benötigst, um Nabern/Teck anzufliegen.

Flugplatz: Nabern/Teck ICAO-Code: EDTN
Frequenz Turm: 118,325 Mhz GAFOR Gebiet: 53
Frequenz Ground: 118,325 Mhz Mogas: nein
Platzrunde: NE 2000 ft Landegebühr: -
Platzhöhe: - Sunrise: 05:06 Uhr UTC
Pisten: 14/32 - 570 m x 30 m, GRAS Sunset: 17:23 Uhr UTC

Mitglieder, die in Nabern/Teck fliegen

Flugwetter am Flugplatz Nabern/Teck

Die METAR Information stammen aus EDDS (20.60 km entfernt).

METAR Code:
2020/09/17 05:20
EDDS 170520Z 35006KT CAVOK 17/14 Q1022 NOSIG

Temperatur: 12,0 °C Niederschlag: - Wind: 1,9 kt
Temperatur (min.): 11,7 °C Luftdruck: 1016 hPa Windrichtung: -
Temperatur (max.): 12,2 °C Luftfeuchtigkeit: 76 % Bewölkung: 2/8

Flugschulen am Flugplatz Nabern/Teck

Am Flugplatz Nabern/Teck gibt es eine Flugschule.

Benachbarte Flugplätze und Flugschulen

Es gibt 28 weitere Flugplätze in einem Umkreis von 50 km um den Flugplatz Nabern/Teck.

Jetzt anmelden

Passwort vergessen

Umfrage Archiv

Wären Rettungsgeräte keine Pflicht mehr, würdet Ihr Euer UL trotzdem mit einem ausstatten?

Ja
85.5 %
Nein
14.5 %
Stimmen: 317 | Diskussion
Anzeige: Roland Aircraft
Statistik Alle Mitglieder

Aktuell sind 58 Besucher online.

Anzeige: VFR Sprechfunk Simulator


Anzeige: Pocket FMS